Time;durP1;ratioP1;P1;durP2;ratioP2;P2;SDS_P1;SDS_P2;PMS_P1;PMS_P2;Temp;Humidity;BMP_temperature;BMP_pressure;BME280_temperature;BME280_humidity;BME280_pressure;Samples;Min_cycle;Max_cycle;Signal;HPM_P1;HPM_P2
2021/07/09 00:01:46;;;;;;;5.17;2.90;;;15.30;99.90;;;;;;5052735;28;20549;-76
2021/07/09 00:04:15;;;;;;;5.27;3.07;;;15.30;99.90;;;;;;5053501;28;20642;-76
2021/07/09 00:06:42;;;;;;;4.73;3.03;;;15.20;99.90;;;;;;5050889;28;20614;-76
2021/07/09 00:09:10;;;;;;;6.37;3.30;;;15.10;99.90;;;;;;5044314;28;20243;-76
2021/07/09 00:11:38;;;;;;;5.73;3.23;;;15.20;99.90;;;;;;5036803;28;20288;-76
2021/07/09 00:14:07;;;;;;;4.93;3.10;;;15.20;99.90;;;;;;5052287;28;20206;-76
2021/07/09 00:16:34;;;;;;;6.47;3.10;;;15.10;99.90;;;;;;5053684;28;20211;-76
2021/07/09 00:19:04;;;;;;;4.97;3.27;;;15.10;99.90;;;;;;5051910;28;20291;-76
2021/07/09 00:21:32;;;;;;;5.73;3.20;;;15.10;99.90;;;;;;5052260;28;20219;-76
2021/07/09 00:24:00;;;;;;;6.20;3.40;;;15.10;99.90;;;;;;5036582;28;20220;-76
2021/07/09 00:26:27;;;;;;;7.27;3.37;;;15.10;99.90;;;;;;5032854;28;20208;-76
2021/07/09 00:28:54;;;;;;;6.23;3.60;;;15.10;99.90;;;;;;5033458;28;20255;-76
2021/07/09 00:31:21;;;;;;;6.27;3.47;;;15.10;99.90;;;;;;5043248;28;20227;-76
2021/07/09 00:33:48;;;;;;;6.63;3.67;;;15.00;99.90;;;;;;5046179;28;20834;-76
2021/07/09 00:36:17;;;;;;;7.87;3.70;;;15.00;99.90;;;;;;5032980;28;20231;-76
2021/07/09 00:38:44;;;;;;;5.93;3.50;;;15.00;99.90;;;;;;5036287;28;20287;-76
2021/07/09 00:41:12;;;;;;;7.33;3.77;;;15.00;99.90;;;;;;5047851;28;20243;-76
2021/07/09 00:43:39;;;;;;;6.83;3.70;;;15.00;99.90;;;;;;5052842;28;20311;-76
2021/07/09 00:46:07;;;;;;;6.73;3.70;;;15.00;99.90;;;;;;5036421;28;20294;-76
2021/07/09 00:48:34;;;;;;;8.27;3.37;;;15.10;99.90;;;;;;5042408;28;20275;-76
2021/07/09 00:51:01;;;;;;;6.40;3.47;;;15.10;99.90;;;;;;5036068;28;20295;-76
2021/07/09 00:53:29;;;;;;;7.53;3.70;;;15.10;99.90;;;;;;5032915;28;20284;-76
2021/07/09 00:55:56;;;;;;;7.20;3.63;;;15.10;99.90;;;;;;5032717;28;20303;-76
2021/07/09 00:58:23;;;;;;;6.47;3.13;;;15.10;99.90;;;;;;5032419;28;20232;-76
2021/07/09 01:00:50;;;;;;;6.57;3.80;;;15.10;99.90;;;;;;5032837;28;20200;-76
2021/07/09 01:03:17;;;;;;;6.57;3.40;;;15.10;99.90;;;;;;5031087;28;20732;-76
2021/07/09 01:05:45;;;;;;;10.07;3.77;;;15.10;99.90;;;;;;5032203;28;20212;-76
2021/07/09 01:08:12;;;;;;;9.87;3.97;;;15.10;99.90;;;;;;5038136;28;20281;-76
2021/07/09 01:10:41;;;;;;;6.00;3.60;;;15.10;99.90;;;;;;5033522;28;20287;-76
2021/07/09 01:13:08;;;;;;;6.93;3.50;;;15.00;99.90;;;;;;5031814;28;20726;-76
2021/07/09 01:15:35;;;;;;;6.93;3.73;;;15.00;99.90;;;;;;5035660;28;20236;-76
2021/07/09 01:18:04;;;;;;;7.43;3.70;;;15.00;99.90;;;;;;5038164;28;20232;-76
2021/07/09 01:20:31;;;;;;;6.33;3.43;;;15.00;99.90;;;;;;5031707;28;20240;-76
2021/07/09 01:22:59;;;;;;;6.83;3.77;;;14.90;99.90;;;;;;5051679;28;20302;-76
2021/07/09 01:25:28;;;;;;;8.27;3.60;;;14.90;99.90;;;;;;5035202;28;20287;-76
2021/07/09 01:27:59;;;;;;;8.23;4.20;;;14.90;99.90;;;;;;5032232;28;20232;-76
2021/07/09 01:30:27;;;;;;;5.93;3.87;;;14.80;99.90;;;;;;5030821;28;20286;-76
2021/07/09 01:32:55;;;;;;;8.47;4.03;;;14.60;99.90;;;;;;5031668;28;20723;-76
2021/07/09 01:35:24;;;;;;;9.30;4.50;;;14.50;99.90;;;;;;5031248;28;20211;-76
2021/07/09 01:37:56;;;;;;;10.27;4.23;;;14.30;99.90;;;;;;5032070;28;20291;-76
2021/07/09 01:40:24;;;;;;;6.83;3.93;;;14.30;99.90;;;;;;5040088;28;20664;-76
2021/07/09 01:42:52;;;;;;;7.37;4.10;;;14.20;99.90;;;;;;5031885;28;20638;-76
2021/07/09 01:45:20;;;;;;;8.97;4.03;;;14.20;99.90;;;;;;5035725;28;20235;-76
2021/07/09 01:47:47;;;;;;;8.07;4.27;;;14.00;99.90;;;;;;5051587;28;20347;-76
2021/07/09 01:50:14;;;;;;;8.13;4.33;;;13.90;99.90;;;;;;5034575;28;20231;-76
2021/07/09 01:52:41;;;;;;;9.93;4.53;;;13.90;99.90;;;;;;5031501;28;20203;-76
2021/07/09 01:55:09;;;;;;;10.20;4.13;;;14.00;99.90;;;;;;5035046;28;20196;-76
2021/07/09 01:57:36;;;;;;;8.07;4.20;;;14.00;99.90;;;;;;5051245;28;20287;-76
2021/07/09 02:00:08;;;;;;;7.97;4.00;;;13.90;99.90;;;;;;5051247;28;20204;-76
2021/07/09 02:02:35;;;;;;;8.40;3.83;;;13.80;99.90;;;;;;5051128;28;20290;-75
2021/07/09 02:05:01;;;;;;;10.30;4.33;;;13.70;99.90;;;;;;5042985;28;20319;-76
2021/07/09 02:07:28;;;;;;;7.07;4.00;;;13.70;99.90;;;;;;5042658;28;20208;-76
2021/07/09 02:09:56;;;;;;;6.47;4.03;;;13.70;99.90;;;;;;5051684;28;20742;-76
2021/07/09 02:12:25;;;;;;;8.53;4.10;;;13.70;99.90;;;;;;5051530;28;20253;-76
2021/07/09 02:14:53;;;;;;;7.90;3.80;;;13.70;99.90;;;;;;5034300;28;20330;-76
2021/07/09 02:17:23;;;;;;;7.03;3.77;;;13.70;99.90;;;;;;5050408;28;20279;-76
2021/07/09 02:19:51;;;;;;;9.40;4.10;;;13.60;99.90;;;;;;5051215;28;20843;-76
2021/07/09 02:22:20;;;;;;;11.10;3.50;;;13.60;99.90;;;;;;5037101;28;20262;-75
2021/07/09 02:24:49;;;;;;;6.27;3.57;;;13.60;99.90;;;;;;5042247;28;20310;-76
2021/07/09 02:27:16;;;;;;;8.33;4.23;;;13.50;99.90;;;;;;5047998;28;20196;-76
2021/07/09 02:29:44;;;;;;;7.40;4.23;;;13.50;99.90;;;;;;5031449;28;20319;-76
2021/07/09 02:32:13;;;;;;;9.10;4.40;;;13.60;99.90;;;;;;5032113;28;20200;-76
2021/07/09 02:34:43;;;;;;;8.00;3.90;;;13.50;99.90;;;;;;5039812;28;20226;-76
2021/07/09 02:37:11;;;;;;;10.33;4.37;;;13.50;99.90;;;;;;5051392;28;20204;-76
2021/07/09 02:39:40;;;;;;;8.63;4.00;;;13.50;99.90;;;;;;5051079;28;20279;-76
2021/07/09 02:42:09;;;;;;;9.83;5.00;;;13.60;99.90;;;;;;5039361;28;20200;-76
2021/07/09 02:44:36;;;;;;;9.23;4.50;;;13.70;99.90;;;;;;5031400;28;20247;-76
2021/07/09 02:47:04;;;;;;;11.67;4.23;;;13.70;99.90;;;;;;5029611;28;20240;-76
2021/07/09 02:49:31;;;;;;;10.50;4.50;;;13.70;99.90;;;;;;5035354;28;20284;-76
2021/07/09 02:52:00;;;;;;;9.40;4.67;;;13.70;99.90;;;;;;5039567;28;20231;-76
2021/07/09 02:54:27;;;;;;;10.73;5.03;;;13.70;99.90;;;;;;5035079;28;20629;-76
2021/07/09 02:56:54;;;;;;;9.43;4.60;;;13.70;99.90;;;;;;5034795;28;20639;-76
2021/07/09 02:59:21;;;;;;;8.63;4.60;;;13.70;99.90;;;;;;5034751;28;20239;-76
2021/07/09 03:01:48;;;;;;;12.17;4.57;;;13.70;99.90;;;;;;5052840;28;20291;-76
2021/07/09 03:04:15;;;;;;;13.17;5.30;;;13.60;99.90;;;;;;5054417;28;20722;-76
2021/07/09 03:06:42;;;;;;;9.73;4.63;;;13.70;99.90;;;;;;5054853;28;20609;-76
2021/07/09 03:09:11;;;;;;;12.73;4.60;;;13.60;99.90;;;;;;5049492;28;20232;-76
2021/07/09 03:11:38;;;;;;;10.00;4.63;;;13.60;99.90;;;;;;5053837;28;20238;-76
2021/07/09 03:14:06;;;;;;;10.30;4.70;;;13.60;99.90;;;;;;5049517;28;20224;-76
2021/07/09 03:16:33;;;;;;;12.93;4.97;;;13.60;99.90;;;;;;5034000;28;20220;-76
2021/07/09 03:19:00;;;;;;;8.23;5.20;;;13.60;99.90;;;;;;5050534;28;20290;-76
2021/07/09 03:21:27;;;;;;;14.03;5.53;;;13.70;99.90;;;;;;5034329;28;20247;-76
2021/07/09 03:23:54;;;;;;;12.20;4.97;;;13.70;99.90;;;;;;5033851;28;20629;-76
2021/07/09 03:26:22;;;;;;;10.90;5.70;;;13.70;99.90;;;;;;5038421;28;20279;-76
2021/07/09 03:28:49;;;;;;;11.30;5.40;;;13.70;99.90;;;;;;5034117;28;20292;-76
2021/07/09 03:31:16;;;;;;;10.80;5.50;;;13.80;99.90;;;;;;5049787;28;20636;-76
2021/07/09 03:33:43;;;;;;;8.47;4.87;;;13.80;99.90;;;;;;5053722;28;20635;-76
2021/07/09 03:36:10;;;;;;;12.00;5.50;;;13.90;99.90;;;;;;5036929;28;20231;-76
2021/07/09 03:38:37;;;;;;;12.27;5.30;;;13.90;99.90;;;;;;5049125;28;20758;-76
2021/07/09 03:41:04;;;;;;;10.20;4.60;;;13.90;99.90;;;;;;5052937;28;20295;-76
2021/07/09 03:43:32;;;;;;;9.60;4.70;;;13.80;99.90;;;;;;5051465;28;20296;-76
2021/07/09 03:45:59;;;;;;;11.30;5.00;;;13.70;99.90;;;;;;5043500;28;20606;-76
2021/07/09 03:48:26;;;;;;;11.60;5.23;;;13.60;99.90;;;;;;5053719;28;20616;-76
2021/07/09 03:50:53;;;;;;;12.23;4.97;;;13.60;99.90;;;;;;5053597;28;20286;-76
2021/07/09 03:53:20;;;;;;;11.10;5.30;;;13.60;99.90;;;;;;5049328;28;20283;-76
2021/07/09 03:55:47;;;;;;;9.23;4.90;;;13.70;99.90;;;;;;5041295;28;20291;-76
2021/07/09 03:58:14;;;;;;;9.37;4.97;;;13.70;99.90;;;;;;5053668;28;20286;-76
2021/07/09 04:00:45;;;;;;;11.60;5.40;;;13.80;99.90;;;;;;5053480;28;20287;-76
2021/07/09 04:03:12;;;;;;;11.40;5.20;;;13.80;99.90;;;;;;5041995;28;20667;-76
2021/07/09 04:05:39;;;;;;;11.10;5.23;;;13.90;99.90;;;;;;5033171;28;20240;-75
2021/07/09 04:08:06;;;;;;;10.90;5.10;;;13.90;99.90;;;;;;5033678;28;20600;-76
2021/07/09 04:10:33;;;;;;;8.67;4.83;;;13.90;99.90;;;;;;5037119;28;20231;-76
2021/07/09 04:13:00;;;;;;;8.90;4.83;;;13.90;99.90;;;;;;5045903;28;20196;-76
2021/07/09 04:15:27;;;;;;;9.73;4.90;;;13.90;99.90;;;;;;5052435;28;20287;-76
2021/07/09 04:17:55;;;;;;;11.73;5.03;;;14.00;99.90;;;;;;5053312;28;20291;-76
2021/07/09 04:20:22;;;;;;;12.87;5.30;;;14.00;99.90;;;;;;5039376;28;20309;-76
2021/07/09 04:22:49;;;;;;;9.67;4.87;;;14.10;99.90;;;;;;5034458;28;20259;-76
2021/07/09 04:25:16;;;;;;;10.83;5.47;;;14.10;99.90;;;;;;5033022;28;20260;-76
2021/07/09 04:27:43;;;;;;;9.17;5.43;;;14.10;99.90;;;;;;5033301;28;20304;-76
2021/07/09 04:30:12;;;;;;;7.97;5.03;;;14.20;99.90;;;;;;5033811;28;20271;-76
2021/07/09 04:32:39;;;;;;;11.10;5.23;;;14.20;99.90;;;;;;5033233;28;20572;-76
2021/07/09 04:35:09;;;;;;;9.83;5.00;;;14.30;99.90;;;;;;5032306;28;20203;-76
2021/07/09 04:37:36;;;;;;;11.40;5.57;;;14.30;99.90;;;;;;5032391;28;20224;-76
2021/07/09 04:40:04;;;;;;;11.03;5.70;;;14.30;99.90;;;;;;5050404;28;20286;-76
2021/07/09 04:42:31;;;;;;;9.53;5.00;;;14.40;99.90;;;;;;5052409;28;20742;-76
2021/07/09 04:44:58;;;;;;;9.27;5.80;;;14.30;99.90;;;;;;5051504;28;20310;-76
2021/07/09 04:47:26;;;;;;;8.77;5.17;;;14.30;99.90;;;;;;5045200;28;20326;-76
2021/07/09 04:49:53;;;;;;;12.77;5.67;;;14.40;99.90;;;;;;5052644;28;20239;-76
2021/07/09 04:52:21;;;;;;;11.60;6.00;;;14.40;99.90;;;;;;5044454;28;20664;-76
2021/07/09 04:54:48;;;;;;;11.00;6.07;;;14.40;99.90;;;;;;5032985;28;20569;-76
2021/07/09 04:57:15;;;;;;;11.07;5.60;;;14.40;99.90;;;;;;5042436;28;20227;-76
2021/07/09 04:59:42;;;;;;;8.97;5.40;;;14.40;99.90;;;;;;5044572;28;20287;-76
2021/07/09 05:02:09;;;;;;;11.90;5.67;;;14.40;99.90;;;;;;5032643;28;20287;-77
2021/07/09 05:04:36;;;;;;;12.07;5.93;;;14.40;99.90;;;;;;5044055;28;20314;-79
2021/07/09 05:07:03;;;;;;;8.83;5.17;;;14.40;99.90;;;;;;5036103;28;20247;-79
2021/07/09 05:09:31;;;;;;;10.20;5.17;;;14.50;99.90;;;;;;5032679;28;20232;-78
2021/07/09 05:11:58;;;;;;;8.47;5.20;;;14.50;99.90;;;;;;5042292;28;20683;-77
2021/07/09 05:14:25;;;;;;;9.83;5.17;;;14.60;99.90;;;;;;5035791;28;20291;-77
2021/07/09 05:16:52;;;;;;;8.33;4.77;;;14.60;99.90;;;;;;5032011;28;20235;-77
2021/07/09 05:19:19;;;;;;;8.23;4.57;;;14.60;99.90;;;;;;5045360;28;20262;-77
2021/07/09 05:21:46;;;;;;;8.07;5.10;;;14.60;99.90;;;;;;5041575;28;20307;-77
2021/07/09 05:24:13;;;;;;;7.70;4.87;;;14.70;99.90;;;;;;5051643;28;20306;-77
2021/07/09 05:26:42;;;;;;;7.63;4.90;;;14.70;99.90;;;;;;5051671;28;20199;-77
2021/07/09 05:29:10;;;;;;;9.83;5.03;;;14.80;99.90;;;;;;5050796;28;20199;-77
2021/07/09 05:31:38;;;;;;;8.63;5.40;;;14.90;99.90;;;;;;5041379;28;20228;-78
2021/07/09 05:34:05;;;;;;;10.17;5.27;;;14.90;99.90;;;;;;5049522;28;20333;-77
2021/07/09 05:36:32;;;;;;;8.03;5.17;;;15.00;99.90;;;;;;5034271;28;20231;-77
2021/07/09 05:38:59;;;;;;;12.30;5.07;;;15.10;99.90;;;;;;5044197;28;20648;-77
2021/07/09 05:41:26;;;;;;;8.43;4.93;;;15.10;99.90;;;;;;5038644;28;20283;-77
2021/07/09 05:43:54;;;;;;;8.27;5.07;;;15.20;99.90;;;;;;5049670;28;20223;-77
2021/07/09 05:46:21;;;;;;;9.97;5.70;;;15.30;99.90;;;;;;5040579;28;20314;-77
2021/07/09 05:49:19;;;;;;;8.43;5.30;;;15.50;99.90;;;;;;5040433;28;20238;-77
2021/07/09 05:51:46;;;;;;;7.53;5.10;;;15.40;99.90;;;;;;5034260;28;20338;-79
2021/07/09 05:54:13;;;;;;;9.63;5.87;;;15.30;99.90;;;;;;5045269;28;20283;-79
2021/07/09 05:56:40;;;;;;;7.70;5.50;;;15.30;99.90;;;;;;5050082;28;20231;-78
2021/07/09 05:59:08;;;;;;;7.77;5.30;;;15.30;99.90;;;;;;5031905;28;20283;-79
2021/07/09 06:01:35;;;;;;;8.80;5.27;;;15.30;99.90;;;;;;5032001;28;20283;-79
2021/07/09 06:04:02;;;;;;;9.90;5.37;;;15.30;99.90;;;;;;5031682;28;20283;-79
2021/07/09 06:06:29;;;;;;;8.40;5.37;;;15.50;99.90;;;;;;5044156;28;20231;-78
2021/07/09 06:08:56;;;;;;;10.57;4.97;;;15.80;99.90;;;;;;5049993;28;20231;-79
2021/07/09 06:11:27;;;;;;;7.50;5.17;;;15.80;99.90;;;;;;5031676;28;20632;-79
2021/07/09 06:13:54;;;;;;;10.23;6.07;;;15.70;99.90;;;;;;5037212;28;20207;-79
2021/07/09 06:16:22;;;;;;;9.37;6.33;;;15.60;99.90;;;;;;5042505;28;20219;-79
2021/07/09 06:18:49;;;;;;;10.20;6.00;;;15.80;99.90;;;;;;5051823;28;20613;-79
2021/07/09 06:21:23;;;;;;;9.87;5.87;;;15.80;99.90;;;;;;5039125;28;20315;-79
2021/07/09 06:23:50;;;;;;;8.10;5.70;;;16.10;99.90;;;;;;5043057;28;20242;-78
2021/07/09 06:26:17;;;;;;;7.40;5.33;;;16.40;99.90;;;;;;5042323;28;20308;-79
2021/07/09 06:28:43;;;;;;;8.10;4.90;;;16.70;99.90;;;;;;5035719;28;20696;-79
2021/07/09 06:31:10;;;;;;;8.07;4.63;;;16.80;99.90;;;;;;5035374;28;20233;-79
2021/07/09 06:33:39;;;;;;;6.63;4.63;;;17.30;99.90;;;;;;5035164;28;20296;-79
2021/07/09 06:36:06;;;;;;;5.80;4.53;;;17.40;99.90;;;;;;5035045;28;20236;-79
2021/07/09 06:38:33;;;;;;;6.30;5.00;;;17.20;99.90;;;;;;5052699;28;20331;-79
2021/07/09 06:41:00;;;;;;;7.40;5.13;;;17.10;99.90;;;;;;5044733;28;20208;-79
2021/07/09 06:43:27;;;;;;;6.93;4.93;;;16.90;99.90;;;;;;5042363;28;20291;-79
2021/07/09 06:45:54;;;;;;;9.27;5.10;;;17.00;99.90;;;;;;5040583;28;20267;-79
2021/07/09 06:48:20;;;;;;;7.13;5.00;;;17.00;99.90;;;;;;5033745;28;20386;-79
2021/07/09 06:50:49;;;;;;;8.00;5.30;;;16.90;99.90;;;;;;5034118;28;20291;-79
2021/07/09 06:53:16;;;;;;;7.80;5.07;;;16.80;99.90;;;;;;5036674;28;20254;-80
2021/07/09 06:55:44;;;;;;;8.40;4.67;;;17.10;99.90;;;;;;5047180;28;20295;-79
2021/07/09 06:58:11;;;;;;;7.17;5.20;;;17.30;99.90;;;;;;5040778;28;20708;-78
2021/07/09 07:00:38;;;;;;;6.37;5.30;;;17.20;99.90;;;;;;5036267;28;20570;-79
2021/07/09 07:03:06;;;;;;;8.13;5.50;;;17.00;99.90;;;;;;5045744;28;20698;-79
2021/07/09 07:05:33;;;;;;;7.57;4.73;;;16.90;99.90;;;;;;5035070;28;20316;-79
2021/07/09 07:08:14;;;;;;;6.40;5.00;;;16.90;99.90;;;;;;5045400;28;20227;-79
2021/07/09 07:10:41;;;;;;;8.23;5.57;;;17.00;99.90;;;;;;5043721;28;20287;-79
2021/07/09 07:13:08;;;;;;;7.97;5.27;;;16.90;99.90;;;;;;5042122;28;20227;-79
2021/07/09 07:15:36;;;;;;;6.73;4.93;;;16.70;99.90;;;;;;5045270;28;20224;-79
2021/07/09 07:18:08;;;;;;;6.80;5.63;;;16.60;99.90;;;;;;5035491;28;20370;-79
2021/07/09 07:20:35;;;;;;;5.93;4.83;;;16.60;99.90;;;;;;5035860;28;20196;-79
2021/07/09 07:23:02;;;;;;;7.73;5.10;;;16.70;99.90;;;;;;5045410;28;20196;-79
2021/07/09 07:25:30;;;;;;;10.27;5.17;;;16.70;99.90;;;;;;5042587;28;20315;-79
2021/07/09 07:27:57;;;;;;;8.10;6.20;;;16.80;99.90;;;;;;5039108;28;20236;-78
2021/07/09 07:30:24;;;;;;;9.73;6.17;;;16.90;99.90;;;;;;5049235;28;20275;-79
2021/07/09 07:32:51;;;;;;;17.07;6.80;;;16.90;99.90;;;;;;5045553;28;20300;-79
2021/07/09 07:35:18;;;;;;;10.40;6.30;;;16.80;99.90;;;;;;5037386;28;20285;-79
2021/07/09 07:37:45;;;;;;;9.47;5.77;;;17.00;99.90;;;;;;5049020;28;20287;-78
2021/07/09 07:40:12;;;;;;;9.10;6.63;;;17.00;99.90;;;;;;5044170;28;20281;-79
2021/07/09 07:42:41;;;;;;;10.20;6.87;;;16.90;99.90;;;;;;5038421;28;20203;-78
2021/07/09 07:45:09;;;;;;;10.43;7.37;;;16.90;99.90;;;;;;5036309;28;20303;-79
2021/07/09 07:47:36;;;;;;;12.83;7.70;;;16.90;99.90;;;;;;5047802;28;20267;-79
2021/07/09 07:50:04;;;;;;;11.63;6.90;;;16.70;99.90;;;;;;5036261;28;20235;-79
2021/07/09 07:52:31;;;;;;;10.10;6.73;;;16.80;99.90;;;;;;5038303;28;20208;-79
2021/07/09 07:54:58;;;;;;;11.43;6.93;;;16.90;99.90;;;;;;5040554;28;20275;-79
2021/07/09 07:57:26;;;;;;;9.93;6.83;;;16.90;99.90;;;;;;5039861;28;20718;-78
2021/07/09 07:59:54;;;;;;;8.03;6.13;;;17.00;99.90;;;;;;5033239;28;20223;-79
2021/07/09 08:02:21;;;;;;;10.83;6.57;;;16.70;99.90;;;;;;5045113;28;20259;-79
2021/07/09 08:04:48;;;;;;;8.27;5.93;;;16.90;99.90;;;;;;5041601;28;20283;-79
2021/07/09 08:07:15;;;;;;;9.87;6.87;;;16.70;99.90;;;;;;5032319;28;20200;-79
2021/07/09 08:09:42;;;;;;;11.00;7.07;;;16.40;99.90;;;;;;5035264;28;20239;-79
2021/07/09 08:12:10;;;;;;;10.10;6.53;;;16.30;99.90;;;;;;5038397;28;20278;-79
2021/07/09 08:14:37;;;;;;;9.37;6.90;;;16.50;99.90;;;;;;5040368;28;20292;-80
2021/07/09 08:17:06;;;;;;;13.63;7.30;;;16.60;99.90;;;;;;5033361;28;20235;-79
2021/07/09 08:19:33;;;;;;;9.97;6.57;;;16.70;99.90;;;;;;5043649;28;20199;-79
2021/07/09 08:22:01;;;;;;;9.27;6.80;;;16.70;99.90;;;;;;5041012;28;20257;-79
2021/07/09 08:24:28;;;;;;;9.60;6.00;;;16.80;99.90;;;;;;5033609;28;20724;-79
2021/07/09 08:26:54;;;;;;;10.07;6.47;;;16.80;99.90;;;;;;5045596;28;20350;-79
2021/07/09 08:29:21;;;;;;;11.77;5.97;;;16.70;99.90;;;;;;5047223;28;20234;-79
2021/07/09 08:31:48;;;;;;;8.33;5.70;;;16.40;99.90;;;;;;5038119;28;20228;-79
2021/07/09 08:34:17;;;;;;;8.70;5.60;;;16.10;99.90;;;;;;5041652;28;20680;-79
2021/07/09 08:36:44;;;;;;;9.90;5.83;;;16.20;99.90;;;;;;5043412;28;20243;-79
2021/07/09 08:39:15;;;;;;;8.67;6.07;;;16.20;99.90;;;;;;5050379;28;20234;-78
2021/07/09 08:41:42;;;;;;;9.60;5.90;;;16.10;99.90;;;;;;5037737;28;20196;-77
2021/07/09 08:44:09;;;;;;;11.03;6.17;;;16.20;99.90;;;;;;5036936;28;20335;-77
2021/07/09 08:46:37;;;;;;;10.93;6.17;;;16.20;99.90;;;;;;5036490;28;20256;-76
2021/07/09 08:49:05;;;;;;;7.00;5.17;;;16.40;99.90;;;;;;5036799;28;20203;-76
2021/07/09 08:51:33;;;;;;;8.27;5.47;;;16.50;99.90;;;;;;5041907;28;20269;-76
2021/07/09 08:54:00;;;;;;;7.97;5.37;;;16.70;99.90;;;;;;5043049;28;20200;-76
2021/07/09 08:56:27;;;;;;;6.60;5.10;;;16.70;99.90;;;;;;5047167;28;20279;-76
2021/07/09 08:58:54;;;;;;;7.90;4.67;;;16.80;99.90;;;;;;5044929;28;20286;-76
2021/07/09 09:01:21;;;;;;;6.50;4.57;;;17.00;99.90;;;;;;5045156;28;20291;-76
2021/07/09 09:03:48;;;;;;;7.73;4.60;;;17.10;99.90;;;;;;5041424;28;20271;-77
2021/07/09 09:06:17;;;;;;;5.03;3.63;;;17.40;99.90;;;;;;5039635;28;20302;-77
2021/07/09 09:08:45;;;;;;;3.70;3.00;;;17.50;99.90;;;;;;5044766;28;20242;-77
2021/07/09 09:11:12;;;;;;;4.10;2.43;;;17.40;99.90;;;;;;5031771;28;20637;-77
2021/07/09 09:13:39;;;;;;;3.03;2.55;;;17.70;99.90;;;;;;5040164;28;20227;-77
2021/07/09 09:16:10;;;;;;;2.63;2.20;;;17.90;99.90;;;;;;5039835;28;20216;-77
2021/07/09 09:18:39;;;;;;;2.28;2.08;;;18.00;99.90;;;;;;5043540;28;20222;-77
2021/07/09 09:21:08;;;;;;;3.38;2.00;;;18.10;99.90;;;;;;5032053;28;20311;-77
2021/07/09 09:23:36;;;;;;;2.67;1.60;;;18.20;99.90;;;;;;5036671;28;20287;-77
2021/07/09 09:26:06;;;;;;;2.63;1.77;;;18.20;99.90;;;;;;5038715;28;20652;-78
2021/07/09 09:28:36;;;;;;;2.30;1.80;;;18.30;99.90;;;;;;5044699;28;20200;-78
2021/07/09 09:31:03;;;;;;;2.30;1.73;;;18.50;99.90;;;;;;5050077;28;20257;-77
2021/07/09 09:33:34;;;;;;;1.90;1.70;;;18.90;99.90;;;;;;5042977;28;20227;-77
2021/07/09 09:36:07;;;;;;;2.00;1.50;;;19.00;99.90;;;;;;5036151;28;20224;-77
2021/07/09 09:38:34;;;;;;;1.80;1.48;;;18.90;99.90;;;;;;5041232;28;20673;-78
2021/07/09 09:41:02;;;;;;;3.72;1.48;;;19.00;99.90;;;;;;5039321;28;20219;-77
2021/07/09 09:43:35;;;;;;;1.60;1.38;;;19.20;99.90;;;;;;5039719;28;20207;-77
2021/07/09 09:46:05;;;;;;;3.25;1.30;;;18.90;99.90;;;;;;5045622;28;20232;-77
2021/07/09 09:48:44;;;;;;;2.70;1.50;;;19.20;99.90;;;;;;5038074;28;20387;-77
2021/07/09 09:51:26;;;;;;;1.95;1.60;;;19.70;99.90;;;;;;5036770;28;20196;-78
2021/07/09 09:53:55;;;;;;;2.15;1.63;;;19.80;99.90;;;;;;5035078;28;20253;-78
2021/07/09 09:56:36;;;;;;;2.35;1.60;;;20.10;99.90;;;;;;5034578;28;20224;-77
2021/07/09 09:59:22;;;;;;;2.67;1.60;;;20.80;99.90;;;;;;5042656;28;20243;-78
2021/07/09 10:01:55;;;;;;;1.70;1.58;;;20.80;99.90;;;;;;5048023;28;20203;-78
2021/07/09 10:04:23;;;;;;;3.15;1.92;;;20.90;99.90;;;;;;5050831;28;20206;-79
2021/07/09 10:06:51;;;;;;;2.38;1.90;;;20.70;99.90;;;;;;5044096;28;20770;-79
2021/07/09 10:09:19;;;;;;;2.33;2.00;;;20.80;99.90;;;;;;5039552;28;20279;-79
2021/07/09 10:11:47;;;;;;;2.38;2.15;;;21.10;99.90;;;;;;5042638;28;20200;-79
2021/07/09 10:14:15;;;;;;;2.20;1.92;;;21.40;99.90;;;;;;5049636;28;20279;-79
2021/07/09 10:16:45;;;;;;;3.22;2.17;;;21.90;99.90;;;;;;5038460;28;20291;-79
2021/07/09 10:19:15;;;;;;;3.13;2.13;;;21.90;99.90;;;;;;5036221;28;20201;-79
2021/07/09 10:21:43;;;;;;;4.13;2.30;;;22.30;99.90;;;;;;5045575;28;20246;-79
2021/07/09 10:24:11;;;;;;;3.90;2.55;;;22.60;99.90;;;;;;5040820;28;20635;-79
2021/07/09 10:26:43;;;;;;;4.05;2.90;;;22.30;99.90;;;;;;5047893;28;20302;-79
2021/07/09 10:29:12;;;;;;;3.80;2.80;;;21.00;99.90;;;;;;5046550;28;20216;-79
2021/07/09 10:31:42;;;;;;;3.17;2.75;;;20.80;99.90;;;;;;5054487;28;20307;-79
2021/07/09 10:34:35;;;;;;;4.13;2.55;;;20.80;99.90;;;;;;5054843;28;20290;-79
2021/07/09 10:37:05;;;;;;;3.17;2.70;;;21.60;99.90;;;;;;5040274;28;20202;-79
2021/07/09 10:39:38;;;;;;;3.55;2.15;;;22.50;99.90;;;;;;5044090;28;20239;-79
2021/07/09 10:42:26;;;;;;;3.85;2.30;;;22.70;99.90;;;;;;5034814;28;20647;-79
2021/07/09 10:45:01;;;;;;;3.75;2.20;;;22.80;99.90;;;;;;5034951;28;20207;-79
2021/07/09 10:47:48;;;;;;;4.40;1.98;;;23.30;99.90;;;;;;5036334;28;20318;-80
2021/07/09 10:50:19;;;;;;;3.33;1.88;;;23.20;99.90;;;;;;5034573;28;20704;-79
2021/07/09 10:52:57;;;;;;;2.35;2.10;;;23.70;99.90;;;;;;5049521;28;20249;-78
2021/07/09 10:55:41;;;;;;;2.70;2.05;;;21.80;99.90;;;;;;5048369;28;20221;-79
2021/07/09 10:58:34;;;;;;;2.10;1.73;;;22.10;99.90;;;;;;5045847;28;20199;-79
2021/07/09 11:01:10;;;;;;;5.03;2.08;;;22.70;99.90;;;;;;5037989;28;20714;-79
2021/07/09 11:03:39;;;;;;;4.43;2.05;;;23.30;99.90;;;;;;5054011;28;20242;-79
2021/07/09 11:06:10;;;;;;;2.78;1.60;;;22.90;99.90;;;;;;5053216;28;20227;-79
2021/07/09 11:08:52;;;;;;;2.55;1.80;;;24.00;99.90;;;;;;5052395;28;20235;-79
2021/07/09 11:11:34;;;;;;;2.47;1.90;;;24.10;99.90;;;;;;5034799;28;20204;-79
2021/07/09 11:14:03;;;;;;;3.22;1.80;;;23.60;99.90;;;;;;5034338;28;20290;-80
2021/07/09 11:16:32;;;;;;;2.85;1.70;;;24.10;99.90;;;;;;5033971;28;20235;-79
2021/07/09 11:19:07;;;;;;;4.03;2.10;;;24.80;99.90;;;;;;5034600;28;20234;-79
2021/07/09 11:21:58;;;;;;;3.47;1.98;;;24.80;99.90;;;;;;5034853;28;20219;-79
2021/07/09 11:24:27;;;;;;;1.77;1.63;;;24.60;99.90;;;;;;5034373;28;20224;-80
2021/07/09 11:26:56;;;;;;;1.80;1.70;;;24.60;99.90;;;;;;5038372;28;20302;-79
2021/07/09 11:29:41;;;;;;;3.63;1.90;;;25.00;99.90;;;;;;5053538;28;20286;-79
2021/07/09 11:32:11;;;;;;;2.20;1.98;;;24.50;99.90;;;;;;5053667;28;20242;-79
2021/07/09 11:34:40;;;;;;;3.67;2.20;;;22.90;99.90;;;;;;5053485;28;20222;-79
2021/07/09 11:37:10;;;;;;;3.42;1.88;;;22.80;99.90;;;;;;5053036;28;20189;-79
2021/07/09 11:39:40;;;;;;;2.42;2.17;;;23.50;99.90;;;;;;5047460;28;20247;-79
2021/07/09 11:42:13;;;;;;;3.42;2.17;;;23.60;99.90;;;;;;5034601;28;20231;-79
2021/07/09 11:44:42;;;;;;;2.38;2.00;;;23.40;99.90;;;;;;5034034;28;20619;-79
2021/07/09 11:47:13;;;;;;;3.03;1.80;;;23.10;99.90;;;;;;5043298;28;20327;-79
2021/07/09 11:49:41;;;;;;;2.10;1.90;;;23.60;99.90;;;;;;5052241;28;20553;-79
2021/07/09 11:52:11;;;;;;;2.08;1.80;;;23.50;99.90;;;;;;5054009;28;20231;-79
2021/07/09 11:54:40;;;;;;;3.17;1.95;;;23.40;99.90;;;;;;5053530;28;20235;-79
2021/07/09 11:57:10;;;;;;;2.28;2.08;;;22.60;99.90;;;;;;5053457;28;20227;-79
2021/07/09 11:59:38;;;;;;;3.28;2.35;;;22.40;99.90;;;;;;5048437;28;20231;-79
2021/07/09 12:02:14;;;;;;;2.75;2.03;;;22.00;99.90;;;;;;5033763;28;20275;-79
2021/07/09 12:04:44;;;;;;;2.20;2.00;;;21.90;99.90;;;;;;5033223;28;20290;-79
2021/07/09 12:07:21;;;;;;;3.00;2.05;;;21.90;99.90;;;;;;5033759;28;20263;-79
2021/07/09 12:09:50;;;;;;;3.40;2.30;;;21.50;99.90;;;;;;5033273;28;20270;-79
2021/07/09 12:12:17;;;;;;;2.42;2.00;;;21.20;99.90;;;;;;5033032;28;20239;-79
2021/07/09 12:15:00;;;;;;;2.30;2.10;;;21.50;99.90;;;;;;5048012;28;20208;-79
2021/07/09 12:17:29;;;;;;;2.00;1.80;;;22.00;99.90;;;;;;5051755;28;20227;-79
2021/07/09 12:20:06;;;;;;;2.33;1.88;;;21.90;99.90;;;;;;5052713;28;20273;-79
2021/07/09 12:22:36;;;;;;;2.13;1.92;;;21.90;99.90;;;;;;5037886;28;20330;-79
2021/07/09 12:25:07;;;;;;;7.00;2.20;;;21.70;99.90;;;;;;5044764;28;20199;-80
2021/07/09 12:27:36;;;;;;;2.30;1.80;;;21.50;99.90;;;;;;5045913;28;20248;-79
2021/07/09 12:30:07;;;;;;;2.28;1.95;;;21.40;99.90;;;;;;5032903;28;20232;-79
2021/07/09 12:32:41;;;;;;;2.33;1.80;;;21.50;99.90;;;;;;5032714;28;20279;-79
2021/07/09 12:35:10;;;;;;;2.75;2.10;;;21.50;99.90;;;;;;5032869;28;20245;-79
2021/07/09 12:37:38;;;;;;;2.63;1.83;;;22.30;99.90;;;;;;5032840;28;20224;-79
2021/07/09 12:40:17;;;;;;;2.95;1.80;;;22.20;99.90;;;;;;5032935;28;20288;-79
2021/07/09 12:42:45;;;;;;;3.15;2.00;;;22.50;99.90;;;;;;5032756;28;20235;-79
2021/07/09 12:45:12;;;;;;;3.33;2.00;;;22.60;99.90;;;;;;5039236;28;20738;-79
2021/07/09 12:47:53;;;;;;;4.05;2.25;;;22.30;99.90;;;;;;5037977;28;20281;-79
2021/07/09 12:50:22;;;;;;;2.45;2.00;;;22.00;99.90;;;;;;5041078;28;20200;-79
2021/07/09 12:52:51;;;;;;;2.35;1.70;;;22.20;99.90;;;;;;5031644;28;20200;-79
2021/07/09 12:55:36;;;;;;;2.30;1.65;;;21.90;99.90;;;;;;5032742;28;20207;-79